Time;durP1;ratioP1;P1;durP2;ratioP2;P2;SDS_P1;SDS_P2;PMS_P1;PMS_P2;Temp;Humidity;BMP_temperature;BMP_pressure;BME280_temperature;BME280_humidity;BME280_pressure;Samples;Min_cycle;Max_cycle;Signal;HPM_P1;HPM_P2
2022/10/04 00:01:07;;;;;;;3.80;2.30;;;;;;;;;;5000515;28;20045;-81
2022/10/04 00:04:00;;;;;;;4.93;2.15;;;;;;;;;;5017303;28;20025;-81
2022/10/04 00:06:25;;;;;;;6.00;2.55;;;;;;;;;;5017790;28;20064;-81
2022/10/04 00:08:52;;;;;;;4.90;2.20;;;;;;;;;;5000202;28;20368;-81
2022/10/04 00:11:33;;;;;;;5.38;2.65;;;;;;;;;;5000971;28;20099;-81
2022/10/04 00:14:03;;;;;;;4.25;2.50;;;;;;;;;;5020946;28;20029;-81
2022/10/04 00:16:31;;;;;;;5.47;2.60;;;;;;;;;;4981162;28;20033;-81
2022/10/04 00:19:22;;;;;;;4.95;1.92;;;;;;;;;;5000999;28;20044;-81
2022/10/04 00:21:54;;;;;;;3.97;1.85;;;;;;;;;;5007282;28;20041;-82
2022/10/04 00:24:29;;;;;;;4.13;2.22;;;;;;;;;;5034218;28;20057;-82
2022/10/04 00:27:19;;;;;;;4.07;2.50;;;;;;;;;;4984662;28;20112;-81
2022/10/04 00:30:05;;;;;;;4.25;2.00;;;;;;;;;;5000252;28;20033;-81
2022/10/04 00:32:40;;;;;;;3.97;2.50;;;;;;;;;;4976829;28;20038;-81
2022/10/04 00:35:23;;;;;;;5.65;2.47;;;;;;;;;;5016445;28;20033;-81
2022/10/04 00:37:56;;;;;;;6.10;2.30;;;;;;;;;;5000442;28;20096;-81
2022/10/04 00:40:21;;;;;;;4.25;2.25;;;;;;;;;;5017063;28;20041;-81
2022/10/04 00:42:51;;;;;;;4.38;1.98;;;;;;;;;;4999831;28;20124;-81
2022/10/04 00:45:40;;;;;;;4.95;2.00;;;;;;;;;;4999588;28;20096;-81
2022/10/04 00:48:24;;;;;;;5.22;2.22;;;;;;;;;;5000215;28;20120;-81
2022/10/04 00:51:22;;;;;;;4.45;2.17;;;;;;;;;;5016653;28;20038;-81
2022/10/04 00:54:07;;;;;;;4.20;1.80;;;;;;;;;;4998148;28;20080;-81
2022/10/04 00:56:42;;;;;;;5.55;2.42;;;;;;;;;;5034926;28;20090;-81
2022/10/04 00:59:30;;;;;;;4.03;1.85;;;;;;;;;;4987435;28;20485;-81
2022/10/04 01:02:10;;;;;;;4.07;2.00;;;;;;;;;;5053855;28;20039;-81
2022/10/04 01:04:39;;;;;;;5.50;1.70;;;;;;;;;;5005057;28;20043;-81
2022/10/04 01:07:04;;;;;;;3.72;1.80;;;;;;;;;;5003015;28;20041;-81
2022/10/04 01:09:31;;;;;;;4.55;2.47;;;;;;;;;;5036162;28;20036;-81
2022/10/04 01:12:37;;;;;;;3.75;1.90;;;;;;;;;;4981906;28;20061;-81
2022/10/04 01:15:10;;;;;;;3.25;2.15;;;;;;;;;;4991593;28;20066;-81
2022/10/04 01:17:35;;;;;;;3.90;2.15;;;;;;;;;;4980410;28;20029;-81
2022/10/04 01:20:01;;;;;;;2.97;1.58;;;;;;;;;;4980480;28;20430;-81
2022/10/04 01:22:41;;;;;;;3.03;1.80;;;;;;;;;;4979767;28;20104;-81
2022/10/04 01:25:07;;;;;;;2.92;1.48;;;;;;;;;;4980448;28;20034;-81
2022/10/04 01:27:40;;;;;;;3.60;1.85;;;;;;;;;;4979571;28;20030;-81
2022/10/04 01:30:11;;;;;;;4.13;1.55;;;;;;;;;;4981132;28;20033;-81
2022/10/04 01:32:37;;;;;;;3.30;1.85;;;;;;;;;;4980405;28;20036;-81
2022/10/04 01:35:03;;;;;;;3.28;2.35;;;;;;;;;;4980309;28;20046;-81
2022/10/04 01:37:28;;;;;;;2.97;1.70;;;;;;;;;;4996072;28;20108;-80
2022/10/04 01:39:54;;;;;;;2.78;1.40;;;;;;;;;;4995776;28;20049;-81
2022/10/04 01:42:29;;;;;;;3.75;1.60;;;;;;;;;;4979416;28;20476;-81
2022/10/04 01:45:22;;;;;;;3.00;1.98;;;;;;;;;;4996964;28;20030;-81
2022/10/04 01:47:56;;;;;;;4.80;2.00;;;;;;;;;;4984772;28;20037;-80
2022/10/04 01:50:30;;;;;;;3.38;1.63;;;;;;;;;;4998837;28;20033;-81
2022/10/04 01:53:09;;;;;;;3.22;2.13;;;;;;;;;;4999409;28;20044;-82
2022/10/04 01:55:35;;;;;;;2.28;1.17;;;;;;;;;;5011898;28;20039;-81
2022/10/04 01:58:13;;;;;;;7.72;2.53;;;;;;;;;;5018256;28;20103;-81
2022/10/04 02:00:42;;;;;;;4.05;2.40;;;;;;;;;;4985640;28;20054;-80
2022/10/04 02:03:11;;;;;;;2.38;1.42;;;;;;;;;;5018383;28;20033;-81
2022/10/04 02:05:58;;;;;;;3.40;1.77;;;;;;;;;;4988697;28;20537;-81
2022/10/04 02:08:28;;;;;;;2.15;1.38;;;;;;;;;;5032255;28;20557;-81
2022/10/04 02:10:55;;;;;;;3.80;1.73;;;;;;;;;;4998449;28;20049;-82
2022/10/04 02:13:20;;;;;;;3.72;1.70;;;;;;;;;;4998700;28;20026;-81
2022/10/04 02:15:46;;;;;;;4.57;1.85;;;;;;;;;;4982085;28;20439;-82
2022/10/04 02:18:13;;;;;;;3.95;2.05;;;;;;;;;;4987899;28;20435;-82
2022/10/04 02:20:39;;;;;;;2.20;1.25;;;;;;;;;;4997334;28;20077;-82
2022/10/04 02:23:05;;;;;;;2.80;1.70;;;;;;;;;;4997190;28;20025;-82
2022/10/04 02:25:30;;;;;;;3.80;2.28;;;;;;;;;;4965498;28;20059;-81
2022/10/04 02:27:56;;;;;;;3.83;1.98;;;;;;;;;;4998126;28;20041;-81
2022/10/04 02:30:22;;;;;;;3.20;1.50;;;;;;;;;;4998106;28;20472;-82
2022/10/04 02:33:20;;;;;;;2.72;1.40;;;;;;;;;;4981859;28;20060;-82
2022/10/04 02:35:43;;;;;;;3.53;1.87;;;;;;;;;;4987460;28;20132;-82
2022/10/04 02:38:12;;;;;;;3.42;1.50;;;;;;;;;;4982291;28;20041;-82
2022/10/04 02:40:47;;;;;;;2.63;1.35;;;;;;;;;;5013964;28;20589;-81
2022/10/04 02:43:21;;;;;;;3.03;1.38;;;;;;;;;;4997534;28;20053;-82
2022/10/04 02:45:52;;;;;;;3.35;1.95;;;;;;;;;;4997588;28;20484;-81
2022/10/04 02:48:21;;;;;;;2.42;1.40;;;;;;;;;;4998055;28;20060;-82
2022/10/04 02:50:49;;;;;;;2.70;1.27;;;;;;;;;;5014351;28;20479;-82
2022/10/04 02:53:21;;;;;;;4.30;1.70;;;;;;;;;;4998141;28;20034;-80
2022/10/04 02:55:47;;;;;;;;;;;;;;;;;;5026673;28;20122;-81
2022/10/04 02:58:14;;;;;;;2.83;1.40;;;;;;;;;;5017802;28;19908;-81
2022/10/04 03:00:50;;;;;;;3.25;1.60;;;;;;;;;;4985138;28;20032;-81
2022/10/04 03:03:25;;;;;;;2.58;1.42;;;;;;;;;;4984438;28;20040;-81
2022/10/04 03:05:58;;;;;;;2.47;1.42;;;;;;;;;;5034191;28;20075;-81
2022/10/04 03:08:24;;;;;;;2.58;1.42;;;;;;;;;;5017427;28;20032;-81
2022/10/04 03:10:50;;;;;;;2.90;1.52;;;;;;;;;;4984442;28;20037;-82
2022/10/04 03:13:15;;;;;;;2.58;1.70;;;;;;;;;;4984871;28;20029;-82
2022/10/04 03:15:41;;;;;;;4.82;1.60;;;;;;;;;;5000479;28;20033;-81
2022/10/04 03:18:07;;;;;;;2.85;1.45;;;;;;;;;;4987074;28;20475;-82
2022/10/04 03:20:36;;;;;;;4.13;1.80;;;;;;;;;;4978112;28;20034;-81
2022/10/04 03:23:01;;;;;;;2.53;1.50;;;;;;;;;;4978249;28;20038;-82
2022/10/04 03:25:37;;;;;;;4.82;1.95;;;;;;;;;;4977498;28;20045;-81
2022/10/04 03:28:02;;;;;;;3.35;1.45;;;;;;;;;;4978426;28;20034;-81
2022/10/04 03:30:28;;;;;;;2.58;1.33;;;;;;;;;;4977949;28;20065;-82
2022/10/04 03:32:53;;;;;;;2.55;1.20;;;;;;;;;;4977874;28;20057;-81
2022/10/04 03:35:31;;;;;;;3.45;1.80;;;;;;;;;;4977830;28;20033;-81
2022/10/04 03:37:57;;;;;;;2.55;1.17;;;;;;;;;;4978540;28;20194;-82
2022/10/04 03:40:26;;;;;;;3.45;1.48;;;;;;;;;;4978005;28;20120;-82
2022/10/04 03:42:51;;;;;;;2.63;1.55;;;;;;;;;;4978501;28;20042;-81
2022/10/04 03:45:17;;;;;;;3.42;1.40;;;;;;;;;;4977241;28;20425;-81
2022/10/04 03:47:43;;;;;;;2.70;1.33;;;;;;;;;;4985584;28;20030;-82
2022/10/04 03:50:17;;;;;;;2.13;1.30;;;;;;;;;;5001457;28;20056;-82
2022/10/04 03:52:53;;;;;;;2.38;1.27;;;;;;;;;;5001566;28;20029;-81
2022/10/04 03:55:19;;;;;;;2.33;1.55;;;;;;;;;;5010743;28;20025;-81
2022/10/04 03:57:44;;;;;;;4.45;1.50;;;;;;;;;;5020880;28;20112;-81
2022/10/04 04:00:14;;;;;;;4.80;1.83;;;;;;;;;;5020732;28;20068;-81
2022/10/04 04:02:51;;;;;;;2.10;1.17;;;;;;;;;;5019923;28;20036;-81
2022/10/04 04:05:39;;;;;;;1.90;1.02;;;;;;;;;;5021397;28;20040;-82
2022/10/04 04:08:13;;;;;;;2.00;1.10;;;;;;;;;;5020756;28;20041;-81
2022/10/04 04:10:43;;;;;;;2.60;1.55;;;;;;;;;;5020550;28;20029;-81
2022/10/04 04:13:39;;;;;;;2.97;1.65;;;;;;;;;;5004370;28;20494;-82
2022/10/04 04:16:05;;;;;;;3.15;1.85;;;;;;;;;;5036693;28;20025;-81
2022/10/04 04:18:32;;;;;;;1.83;1.20;;;;;;;;;;4971009;28;20064;-81
2022/10/04 04:20:58;;;;;;;4.45;1.55;;;;;;;;;;4981611;28;20511;-82
2022/10/04 04:23:34;;;;;;;3.45;1.65;;;;;;;;;;4980721;28;20124;-81
2022/10/04 04:26:13;;;;;;;2.25;1.20;;;;;;;;;;4981309;28;20041;-81
2022/10/04 04:28:47;;;;;;;3.08;1.10;;;;;;;;;;4982635;28;20026;-81
2022/10/04 04:31:24;;;;;;;2.92;1.30;;;;;;;;;;4981015;28;20048;-82
2022/10/04 04:34:00;;;;;;;2.35;1.33;;;;;;;;;;4981137;28;20476;-80
2022/10/04 04:36:27;;;;;;;2.45;1.42;;;;;;;;;;4964871;28;20117;-81
2022/10/04 04:41:39;;;;;;;2.30;1.20;;;;;;;;;;4985821;28;20070;-80
2022/10/04 04:44:14;;;;;;;2.80;1.30;;;;;;;;;;4980831;28;20485;-81
2022/10/04 04:46:43;;;;;;;2.10;0.90;;;;;;;;;;4981055;28;20029;-81
2022/10/04 04:49:08;;;;;;;1.85;1.02;;;;;;;;;;4997350;28;20483;-81
2022/10/04 04:51:34;;;;;;;2.42;0.93;;;;;;;;;;4999855;28;20159;-81
2022/10/04 04:54:01;;;;;;;2.13;1.40;;;;;;;;;;4999863;28;20116;-81
2022/10/04 04:56:27;;;;;;;2.33;1.17;;;;;;;;;;4999212;28;20041;-82
2022/10/04 04:58:53;;;;;;;3.72;1.05;;;;;;;;;;4983722;28;20033;-82
2022/10/04 05:01:28;;;;;;;3.03;1.52;;;;;;;;;;5000383;28;20030;-82
2022/10/04 05:04:03;;;;;;;2.47;1.55;;;;;;;;;;5032685;28;20033;-80
2022/10/04 05:06:29;;;;;;;2.13;0.93;;;;;;;;;;5015386;28;20041;-82
2022/10/04 05:08:55;;;;;;;2.30;1.30;;;;;;;;;;4999959;28;20041;-82
2022/10/04 05:11:21;;;;;;;1.85;1.00;;;;;;;;;;4999842;28;20030;-82
2022/10/04 05:13:59;;;;;;;2.55;1.08;;;;;;;;;;4999803;28;20029;-82
2022/10/04 05:16:44;;;;;;;2.33;1.33;;;;;;;;;;4999854;28;20069;-81
2022/10/04 05:19:15;;;;;;;1.83;1.10;;;;;;;;;;5012421;28;20079;-82
2022/10/04 05:21:45;;;;;;;4.03;1.80;;;;;;;;;;4995946;28;20041;-82
2022/10/04 05:24:20;;;;;;;4.22;1.30;;;;;;;;;;5007294;28;20283;-84
2022/10/04 05:26:54;;;;;;;3.28;1.98;;;;;;;;;;4999457;28;20141;-82
2022/10/04 05:29:22;;;;;;;5.82;2.25;;;;;;;;;;5004388;28;20030;-87
2022/10/04 05:32:25;;;;;;;3.33;1.73;;;;;;;;;;4998921;28;20124;-82
2022/10/04 05:34:51;;;;;;;;;;;;;;;;;;5006261;28;20029;-82
2022/10/04 05:37:32;;;;;;;8.90;2.70;;;;;;;;;;5019916;28;19909;-82
2022/10/04 05:40:22;;;;;;;10.75;3.03;;;;;;;;;;4997462;28;20061;-82
2022/10/04 05:42:48;;;;;;;7.95;2.10;;;;;;;;;;5000948;28;20087;-82
2022/10/04 05:45:16;;;;;;;6.32;2.35;;;;;;;;;;4999062;28;20042;-81
2022/10/04 05:47:42;;;;;;;10.45;2.75;;;;;;;;;;4995482;28;20053;-82
2022/10/04 05:50:25;;;;;;;10.50;2.90;;;;;;;;;;5028441;28;20128;-82
2022/10/04 05:52:50;;;;;;;11.55;2.33;;;;;;;;;;5012284;28;20034;-83
2022/10/04 05:55:21;;;;;;;8.55;2.47;;;;;;;;;;4990975;28;20040;-82
2022/10/04 05:57:58;;;;;;;10.88;2.88;;;;;;;;;;5002486;28;20021;-82
2022/10/04 06:00:38;;;;;;;7.65;3.05;;;;;;;;;;5018099;28;20036;-83
2022/10/04 06:03:10;;;;;;;10.65;2.75;;;;;;;;;;5018554;28;20040;-83
2022/10/04 06:05:52;;;;;;;11.27;2.53;;;;;;;;;;5018193;28;20044;-83
2022/10/04 06:08:23;;;;;;;12.30;2.90;;;;;;;;;;4995277;28;20500;-83
2022/10/04 06:11:10;;;;;;;7.05;1.90;;;;;;;;;;4994754;28;20470;-83
2022/10/04 06:14:02;;;;;;;10.85;2.53;;;;;;;;;;4995252;28;20538;-84
2022/10/04 06:17:01;;;;;;;6.40;1.92;;;;;;;;;;4994663;28;20034;-84
2022/10/04 06:19:27;;;;;;;11.32;2.72;;;;;;;;;;4974303;28;20049;-84
2022/10/04 06:22:00;;;;;;;9.98;2.80;;;;;;;;;;4995320;28;20042;-83
2022/10/04 06:24:31;;;;;;;7.90;2.42;;;;;;;;;;4994746;28;20064;-83
2022/10/04 06:27:03;;;;;;;9.98;3.00;;;;;;;;;;4979246;28;20372;-83
2022/10/04 06:29:32;;;;;;;9.82;2.55;;;;;;;;;;4978994;28;20037;-82
2022/10/04 06:32:19;;;;;;;6.85;2.80;;;;;;;;;;4978847;28;20381;-83
2022/10/04 06:35:03;;;;;;;10.77;2.45;;;;;;;;;;4994391;28;20548;-83
2022/10/04 06:37:37;;;;;;;7.85;2.00;;;;;;;;;;4995135;28;20030;-84
2022/10/04 06:40:36;;;;;;;5.00;2.10;;;;;;;;;;5011519;28;20042;-83
2022/10/04 06:43:28;;;;;;;9.00;3.05;;;;;;;;;;4994362;28;20033;-83
2022/10/04 06:46:16;;;;;;;10.35;2.80;;;;;;;;;;4978328;28;20025;-83
2022/10/04 06:48:57;;;;;;;7.20;1.95;;;;;;;;;;5006745;28;20029;-83
2022/10/04 06:51:55;;;;;;;5.93;1.90;;;;;;;;;;4997922;28;20030;-82
2022/10/04 06:54:51;;;;;;;8.05;1.95;;;;;;;;;;4963751;28;20064;-82
2022/10/04 06:57:34;;;;;;;7.72;1.80;;;;;;;;;;5034010;28;20024;-82
2022/10/04 07:00:12;;;;;;;6.50;1.77;;;;;;;;;;5017703;28;20090;-82
2022/10/04 07:02:45;;;;;;;4.45;2.08;;;;;;;;;;5018187;28;20120;-81
2022/10/04 07:05:29;;;;;;;4.93;1.92;;;;;;;;;;5001669;28;20045;-80
2022/10/04 07:08:05;;;;;;;4.57;2.05;;;;;;;;;;5035103;28;20519;-81
2022/10/04 07:10:48;;;;;;;7.47;2.50;;;;;;;;;;5003777;28;20378;-82
2022/10/04 07:13:21;;;;;;;5.85;2.13;;;;;;;;;;5018223;28;20080;-82
2022/10/04 07:16:22;;;;;;;5.25;1.85;;;;;;;;;;5016822;28;20123;-82
2022/10/04 07:19:18;;;;;;;4.93;1.83;;;;;;;;;;4996846;28;20501;-82
2022/10/04 07:22:02;;;;;;;4.57;1.70;;;;;;;;;;5011863;28;20038;-82
2022/10/04 07:24:56;;;;;;;5.05;2.35;;;;;;;;;;4994208;28;20031;-82
2022/10/04 07:27:40;;;;;;;3.78;1.65;;;;;;;;;;4994420;28;20038;-82
2022/10/04 07:30:08;;;;;;;5.13;1.60;;;;;;;;;;4977335;28;20054;-82
2022/10/04 07:32:35;;;;;;;3.92;1.40;;;;;;;;;;4962281;28;20034;-82
2022/10/04 07:35:12;;;;;;;7.75;1.80;;;;;;;;;;4978009;28;20558;-83
2022/10/04 07:37:50;;;;;;;5.30;1.80;;;;;;;;;;4977969;28;20137;-83
2022/10/04 07:40:54;;;;;;;9.70;1.55;;;;;;;;;;4993929;28;20022;-82
2022/10/04 07:43:24;;;;;;;3.45;1.80;;;;;;;;;;4997904;28;20045;-82
2022/10/04 07:45:50;;;;;;;6.03;1.83;;;;;;;;;;4961955;28;20042;-83
2022/10/04 07:48:22;;;;;;;5.35;1.90;;;;;;;;;;4986959;28;20056;-82
2022/10/04 07:51:12;;;;;;;3.20;1.67;;;;;;;;;;5013647;28;20035;-83
2022/10/04 07:53:47;;;;;;;7.82;3.13;;;;;;;;;;5030018;28;20087;-82
2022/10/04 07:56:25;;;;;;;5.88;3.03;;;;;;;;;;5030498;28;20033;-82
2022/10/04 07:59:35;;;;;;;10.63;5.80;;;;;;;;;;5001213;28;20041;-83
2022/10/04 08:02:15;;;;;;;14.77;9.43;;;;;;;;;;5035844;28;20120;-83
2022/10/04 08:05:02;;;;;;;16.88;10.35;;;;;;;;;;5032717;28;20047;-83
2022/10/04 08:07:45;;;;;;;24.35;14.43;;;;;;;;;;5050783;28;20037;-83
2022/10/04 08:10:21;;;;;;;;;;;;;;;;;;5017393;28;20479;-83
2022/10/04 08:13:21;;;;;;;19.60;12.38;;;;;;;;;;5016776;28;20430;-83
2022/10/04 08:15:46;;;;;;;18.63;11.25;;;;;;;;;;4986915;28;20032;-82
2022/10/04 08:19:01;;;;;;;22.45;11.30;;;;;;;;;;5002469;28;20034;-82
2022/10/04 08:21:31;;;;;;;20.55;12.10;;;;;;;;;;4949836;28;20034;-82
2022/10/04 08:23:56;;;;;;;19.55;12.23;;;;;;;;;;4993130;28;20038;-82
2022/10/04 08:26:54;;;;;;;21.55;12.40;;;;;;;;;;4993898;28;20396;-82
2022/10/04 08:29:42;;;;;;;24.77;13.30;;;;;;;;;;4982907;28;20042;-82
2022/10/04 08:32:08;;;;;;;20.65;12.40;;;;;;;;;;4994382;28;20113;-82
2022/10/04 08:34:36;;;;;;;24.55;13.20;;;;;;;;;;4996882;28;20460;-82
2022/10/04 08:37:42;;;;;;;19.13;12.60;;;;;;;;;;5014825;28;20049;-82
2022/10/04 08:40:17;;;;;;;19.65;12.20;;;;;;;;;;4980209;28;20061;-83
2022/10/04 08:43:10;;;;;;;23.42;13.98;;;;;;;;;;4996473;28;20038;-83
2022/10/04 08:45:55;;;;;;;20.17;13.27;;;;;;;;;;4996777;28;20061;-83
2022/10/04 08:48:48;;;;;;;23.75;13.45;;;;;;;;;;5006544;28;20032;-83
2022/10/04 08:51:22;;;;;;;;;;;;;;;;;;5033177;28;20553;-82
2022/10/04 08:53:47;;;;;;;20.60;11.98;;;;;;;;;;5032694;28;19931;-83
2022/10/04 08:56:34;;;;;;;19.33;13.27;;;;;;;;;;5032659;28;20626;-83
2022/10/04 08:59:26;;;;;;;22.77;12.90;;;;;;;;;;5036582;28;20051;-83
2022/10/04 09:02:12;;;;;;;19.65;13.15;;;;;;;;;;5037783;28;20024;-82
2022/10/04 09:04:49;;;;;;;20.60;12.73;;;;;;;;;;5019214;28;20045;-83
2022/10/04 09:07:46;;;;;;;22.10;12.55;;;;;;;;;;5019197;28;20033;-82
2022/10/04 09:10:33;;;;;;;22.13;12.98;;;;;;;;;;5053640;28;20040;-82
2022/10/04 09:13:22;;;;;;;23.50;15.65;;;;;;;;;;5019011;28;20040;-82
2022/10/04 09:15:55;;;;;;;25.83;16.20;;;;;;;;;;5019320;28;20033;-81
2022/10/04 09:18:31;;;;;;;32.55;20.42;;;;;;;;;;4987422;28;20026;-82
2022/10/04 09:21:38;;;;;;;37.35;23.13;;;;;;;;;;4981342;28;20068;-82
2022/10/04 09:24:29;;;;;;;35.15;20.33;;;;;;;;;;4995429;28;20045;-82
2022/10/04 09:27:05;;;;;;;30.50;18.63;;;;;;;;;;4980154;28;20038;-82
2022/10/04 09:29:52;;;;;;;33.42;17.60;;;;;;;;;;4964869;28;20037;-82
2022/10/04 09:32:29;;;;;;;27.65;18.23;;;;;;;;;;4982199;28;20485;-82
2022/10/04 09:35:09;;;;;;;28.92;17.63;;;;;;;;;;4979566;28;20500;-82
2022/10/04 09:38:06;;;;;;;30.00;18.08;;;;;;;;;;4980032;28;20041;-82
2022/10/04 09:40:43;;;;;;;27.77;18.30;;;;;;;;;;4963352;28;20026;-82
2022/10/04 09:43:35;;;;;;;25.98;17.02;;;;;;;;;;4995812;28;20049;-82
2022/10/04 09:46:00;;;;;;;23.90;16.37;;;;;;;;;;4960730;28;20125;-82
2022/10/04 09:48:35;;;;;;;31.13;18.45;;;;;;;;;;5012739;28;20446;-82
2022/10/04 09:51:26;;;;;;;29.13;18.42;;;;;;;;;;5015357;28;20100;-82
2022/10/04 09:54:10;;;;;;;30.52;19.45;;;;;;;;;;5031415;28;20037;-82
2022/10/04 09:57:00;;;;;;;34.22;21.30;;;;;;;;;;5034415;28;20387;-83
2022/10/04 09:59:35;;;;;;;34.13;22.45;;;;;;;;;;5018734;28;20056;-83
2022/10/04 10:02:06;;;;;;;43.25;28.30;;;;;;;;;;5035473;28;20037;-83
2022/10/04 10:04:37;;;;;;;51.95;33.38;;;;;;;;;;5034598;28;20039;-84
2022/10/04 10:07:24;;;;;;;61.35;37.00;;;;;;;;;;5018134;28;20037;-83
2022/10/04 10:16:14;;;;;;;87.40;55.92;;;;;;;;;;5052460;28;20029;-83
2022/10/04 10:19:00;;;;;;;94.45;58.08;;;;;;;;;;4999455;28;20037;-83
2022/10/04 10:21:47;;;;;;;95.30;56.58;;;;;;;;;;4979200;28;20029;-83
2022/10/04 10:24:25;;;;;;;90.93;58.83;;;;;;;;;;4994781;28;20045;-83
2022/10/04 10:27:06;;;;;;;91.97;56.83;;;;;;;;;;4979951;28;20072;-83
2022/10/04 10:29:43;;;;;;;89.70;56.47;;;;;;;;;;5012505;28;20037;-83
2022/10/04 10:32:32;;;;;;;85.93;54.15;;;;;;;;;;4978893;28;20030;-83
2022/10/04 10:35:15;;;;;;;89.53;55.08;;;;;;;;;;4978367;28;20392;-83
2022/10/04 10:37:59;;;;;;;;;;;;;;;;;;4979022;28;20033;-82
2022/10/04 10:40:39;;;;;;;84.50;52.13;;;;;;;;;;5012567;28;20393;-83
2022/10/04 10:43:24;;;;;;;85.28;52.75;;;;;;;;;;4995224;28;20038;-83
2022/10/04 10:46:12;;;;;;;77.03;49.75;;;;;;;;;;4994456;28;20423;-83
2022/10/04 10:49:09;;;;;;;80.97;50.78;;;;;;;;;;5024088;28;20033;-83
2022/10/04 10:51:41;;;;;;;75.82;47.20;;;;;;;;;;5014159;28;20455;-82
2022/10/04 10:54:29;;;;;;;79.47;48.97;;;;;;;;;;5031429;28;20120;-83
2022/10/04 10:57:16;;;;;;;76.03;47.88;;;;;;;;;;5010949;28;20070;-83
2022/10/04 11:00:21;;;;;;;71.60;45.67;;;;;;;;;;4994778;28;20041;-83
2022/10/04 11:03:10;;;;;;;71.85;45.63;;;;;;;;;;5010833;28;20033;-83
2022/10/04 11:05:44;;;;;;;72.90;46.70;;;;;;;;;;4994112;28;20479;-83
2022/10/04 11:09:03;;;;;;;66.95;42.95;;;;;;;;;;5011756;28;20061;-83
2022/10/04 11:11:47;;;;;;;69.70;45.05;;;;;;;;;;4994910;28;20144;-83
2022/10/04 11:14:37;;;;;;;63.90;42.63;;;;;;;;;;5011804;28;20055;-82
2022/10/04 11:17:22;;;;;;;66.05;42.10;;;;;;;;;;4979371;28;20085;-83
2022/10/04 11:20:23;;;;;;;62.08;40.72;;;;;;;;;;4998002;28;20036;-82
2022/10/04 11:23:13;;;;;;;64.00;42.17;;;;;;;;;;4997255;28;20120;-82
2022/10/04 11:25:51;;;;;;;67.82;41.80;;;;;;;;;;4982077;28;20129;-82
2022/10/04 11:28:21;;;;;;;70.25;44.88;;;;;;;;;;5014935;28;20040;-82
2022/10/04 11:31:27;;;;;;;82.88;50.88;;;;;;;;;;5013804;28;20064;-82
2022/10/04 11:34:23;;;;;;;88.65;53.28;;;;;;;;;;4992115;28;20045;-82
2022/10/04 11:36:55;;;;;;;101.88;59.97;;;;;;;;;;4997878;28;20033;-81
2022/10/04 11:39:43;;;;;;;97.72;60.45;;;;;;;;;;4997219;28;20037;-81
2022/10/04 11:42:48;;;;;;;101.03;63.92;;;;;;;;;;5013326;28;20033;-81
2022/10/04 11:45:39;;;;;;;96.85;58.30;;;;;;;;;;5013346;28;20061;-81
2022/10/04 11:48:10;;;;;;;94.97;57.47;;;;;;;;;;4994719;28;20025;-81
2022/10/04 11:51:17;;;;;;;92.97;58.40;;;;;;;;;;5029469;28;20487;-82
2022/10/04 11:54:29;;;;;;;86.03;54.97;;;;;;;;;;5013568;28;20100;-82
2022/10/04 11:57:38;;;;;;;85.97;52.72;;;;;;;;;;4995225;28;20089;-81
2022/10/04 12:00:17;;;;;;;84.15;52.53;;;;;;;;;;4934669;29;20151;-82
2022/10/04 12:03:13;;;;;;;88.97;53.85;;;;;;;;;;4986585;28;20042;-81
2022/10/04 12:05:48;;;;;;;83.68;50.88;;;;;;;;;;4988448;28;20056;-82
2022/10/04 12:08:16;;;;;;;81.45;49.70;;;;;;;;;;4997114;28;20044;-81
2022/10/04 12:10:43;;;;;;;76.60;48.47;;;;;;;;;;5014809;28;20041;-80
2022/10/04 12:13:25;;;;;;;82.60;49.75;;;;;;;;;;4981440;28;20034;-81
2022/10/04 12:16:04;;;;;;;76.93;46.63;;;;;;;;;;4981521;28;20092;-81
2022/10/04 12:19:14;;;;;;;76.57;45.78;;;;;;;;;;4991648;28;20034;-81
2022/10/04 12:21:51;;;;;;;74.38;45.42;;;;;;;;;;4981923;28;20168;-81
2022/10/04 12:24:38;;;;;;;70.70;45.10;;;;;;;;;;4997080;28;20164;-81
2022/10/04 12:27:31;;;;;;;70.75;43.50;;;;;;;;;;5014848;28;20046;-81
2022/10/04 12:30:03;;;;;;;73.25;46.47;;;;;;;;;;4997326;28;20030;-81
2022/10/04 12:32:34;;;;;;;69.13;44.05;;;;;;;;;;4981530;28;20576;-80
2022/10/04 12:35:36;;;;;;;68.77;42.73;;;;;;;;;;4997060;28;20100;-81
2022/10/04 12:38:20;;;;;;;65.57;41.75;;;;;;;;;;4997000;28;20046;-81
2022/10/04 12:41:38;;;;;;;66.95;41.30;;;;;;;;;;4996779;28;20620;-81
2022/10/04 12:44:21;;;;;;;63.45;40.03;;;;;;;;;;4918651;29;20402;-80
2022/10/04 12:47:04;;;;;;;62.83;37.67;;;;;;;;;;4934325;29;20055;-81
2022/10/04 12:49:46;;;;;;;66.10;40.13;;;;;;;;;;4971142;28;20052;-80
2022/10/04 12:52:17;;;;;;;66.68;41.70;;;;;;;;;;4982273;28;20030;-81
2022/10/04 12:54:51;;;;;;;63.60;38.85;;;;;;;;;;4988172;28;20021;-81
2022/10/04 12:57:38;;;;;;;59.90;36.80;;;;;;;;;;5020695;28;20114;-81
2022/10/04 13:00:23;;;;;;;57.28;37.78;;;;;;;;;;5019616;28;20120;-81
2022/10/04 13:03:12;;;;;;;60.10;36.53;;;;;;;;;;5004361;28;20025;-82
2022/10/04 13:06:02;;;;;;;57.90;37.15;;;;;;;;;;5036064;28;20037;-81
2022/10/04 13:08:46;;;;;;;53.35;34.13;;;;;;;;;;5019445;28;20051;-81
2022/10/04 13:11:51;;;;;;;59.67;37.53;;;;;;;;;;5053810;28;20025;-80
2022/10/04 13:14:22;;;;;;;55.00;35.42;;;;;;;;;;5053645;28;20033;-81
2022/10/04 13:17:18;;;;;;;54.33;34.33;;;;;;;;;;5018875;28;20071;-81
2022/10/04 13:20:14;;;;;;;57.13;37.63;;;;;;;;;;4977071;28;20042;-81
2022/10/04 13:23:00;;;;;;;60.85;37.50;;;;;;;;;;5013785;28;20062;-81
2022/10/04 13:25:44;;;;;;;67.13;41.78;;;;;;;;;;5012285;28;20030;-81
2022/10/04 13:28:19;;;;;;;72.30;44.85;;;;;;;;;;4980154;28;20030;-81
2022/10/04 13:31:03;;;;;;;75.68;48.47;;;;;;;;;;4996244;28;20034;-81
2022/10/04 13:33:34;;;;;;;73.65;47.80;;;;;;;;;;4995782;28;20507;-81
2022/10/04 13:36:53;;;;;;;71.57;45.80;;;;;;;;;;4995903;28;20045;-81
2022/10/04 13:39:40;;;;;;;78.13;49.05;;;;;;;;;;4971586;28;20412;-81
2022/10/04 13:42:08;;;;;;;78.82;48.95;;;;;;;;;;4979496;28;20025;-81
2022/10/04 13:44:42;;;;;;;83.35;53.38;;;;;;;;;;5013169;28;20038;-81
2022/10/04 13:47:28;;;;;;;83.43;53.25;;;;;;;;;;4995254;28;20057;-82
2022/10/04 13:49:56;;;;;;;83.85;52.13;;;;;;;;;;4996058;28;20058;-81
2022/10/04 13:58:59;;;;;;;99.53;68.15;;;;;;;;;;5037658;28;20025;-81
2022/10/04 14:01:48;;;;;;;105.70;71.60;;;;;;;;;;5003416;28;20041;-81
2022/10/04 14:04:48;;;;;;;118.57;80.70;;;;;;;;;;5035941;28;20037;-80
2022/10/04 14:07:25;;;;;;;127.35;81.45;;;;;;;;;;5002080;28;20099;-81
2022/10/04 14:09:55;;;;;;;116.20;79.60;;;;;;;;;;5018213;28;20390;-81
2022/10/04 14:12:24;;;;;;;119.85;81.60;;;;;;;;;;5034751;28;20421;-81
2022/10/04 14:14:55;;;;;;;124.22;82.93;;;;;;;;;;5018011;28;20498;-81
2022/10/04 14:17:43;;;;;;;124.97;82.07;;;;;;;;;;5047874;28;20032;-81
2022/10/04 14:20:14;;;;;;;126.00;80.05;;;;;;;;;;4998366;28;20567;-81
2022/10/04 14:23:19;;;;;;;113.15;76.18;;;;;;;;;;4998389;28;20038;-81
2022/10/04 14:26:06;;;;;;;108.80;69.18;;;;;;;;;;5032447;28;20080;-80
2022/10/04 14:28:32;;;;;;;107.43;69.57;;;;;;;;;;5015093;28;20041;-80
2022/10/04 14:31:22;;;;;;;103.55;67.72;;;;;;;;;;5013535;28;20037;-81
2022/10/04 14:34:18;;;;;;;88.18;58.70;;;;;;;;;;5014304;28;20483;-80
2022/10/04 14:37:24;;;;;;;88.28;56.65;;;;;;;;;;5014621;28;20049;-80
2022/10/04 14:40:15;;;;;;;88.72;56.42;;;;;;;;;;5000792;28;20029;-80
2022/10/04 14:42:53;;;;;;;80.10;52.45;;;;;;;;;;4977630;28;20049;-80
2022/10/04 14:45:50;;;;;;;76.85;52.20;;;;;;;;;;5013870;28;20057;-80
2022/10/04 14:48:28;;;;;;;80.95;50.45;;;;;;;;;;5017032;28;20033;-80
2022/10/04 14:51:14;;;;;;;71.72;49.30;;;;;;;;;;5032170;28;20052;-80
2022/10/04 14:54:03;;;;;;;76.18;48.22;;;;;;;;;;5014587;28;20039;-79
2022/10/04 14:56:59;;;;;;;70.82;44.92;;;;;;;;;;5018398;28;20048;-81
2022/10/04 14:59:25;;;;;;;69.47;46.20;;;;;;;;;;5051488;28;20064;-81
2022/10/04 15:01:59;;;;;;;70.45;45.95;;;;;;;;;;5051950;28;20530;-81
2022/10/04 15:04:32;;;;;;;63.22;39.50;;;;;;;;;;5017005;28;20499;-80
2022/10/04 15:07:03;;;;;;;67.65;41.72;;;;;;;;;;5033693;28;20064;-80
2022/10/04 15:09:54;;;;;;;60.20;38.20;;;;;;;;;;5000708;28;20036;-80
2022/10/04 15:12:29;;;;;;;62.33;41.00;;;;;;;;;;5017415;28;20036;-79
2022/10/04 15:15:04;;;;;;;65.72;36.42;;;;;;;;;;5033504;28;20029;-80
2022/10/04 15:17:36;;;;;;;53.20;35.35;;;;;;;;;;5028149;28;20075;-80
2022/10/04 15:20:18;;;;;;;;;;;;;;;;;;4998347;28;20514;-80
2022/10/04 15:22:48;;;;;;;57.67;36.97;;;;;;;;;;5013649;28;19913;-79
2022/10/04 15:25:39;;;;;;;54.45;34.88;;;;;;;;;;4997782;28;20484;-81
2022/10/04 15:28:31;;;;;;;54.03;33.95;;;;;;;;;;5013280;28;20361;-82
2022/10/04 15:31:09;;;;;;;49.95;32.90;;;;;;;;;;5015944;28;20069;-82
2022/10/04 15:34:13;;;;;;;51.33;32.78;;;;;;;;;;4997530;28;20029;-82
2022/10/04 15:36:51;;;;;;;49.80;32.67;;;;;;;;;;5013569;28;20144;-82
2022/10/04 15:39:44;;;;;;;51.10;31.85;;;;;;;;;;5013715;28;20104;-82
2022/10/04 15:42:18;;;;;;;50.63;31.88;;;;;;;;;;5016139;28;20041;-81
2022/10/04 15:45:02;;;;;;;48.13;31.45;;;;;;;;;;5017531;28;20033;-81
2022/10/04 15:47:34;;;;;;;51.75;32.58;;;;;;;;;;5017323;28;20021;-82
2022/10/04 15:50:16;;;;;;;44.40;29.92;;;;;;;;;;5001406;28;20029;-82
2022/10/04 15:53:11;;;;;;;46.80;29.75;;;;;;;;;;5018859;28;20037;-81
2022/10/04 15:56:07;;;;;;;40.42;27.38;;;;;;;;;;5012260;28;20048;-81
2022/10/04 15:58:45;;;;;;;43.45;26.85;;;;;;;;;;5020449;28;20036;-80